»·PEaware :: N24981 KOXR-KSBP

N24981 :: KOXR-KSBP

FLIGHT INFORMATION

Flight Status: Arrived
Operator: Privately registered:
United States
More flights under this callsign
Pilot: Julio S. (28535)
Aircraft: CESSNA 152 AEROBAT
(C152)
More flights by this aircraft type
Origin: KOXR Oxnard
United States
Destination: KSBP San Luis Co Regl
United States
More flights between these airports :: More routes between these airports
Route: RZS MQO
File this flight plan on PilotEdge
Remarks:
Altitude:
(Current/Filed)
6,000ft
Speed:
(Current/Filed)
96kts
Departed: 19-Jan-21 05:53 PM
Arrived: 19-Jan-21 07:13 PM
Distance/Time
Traveled:
94nm/1:20
Distance/Time
To Go:
Arrived

Flight Plot

Page will automatically refresh every two minutes.

Flight plan parsing failed; only flown route is shown


Map Options




Map Legend


Flown Route
Filed Route
Departure Airport
Arrival Airport
Navaid (VOR, NDB)
Fix

Horizontal Profiles

Position Reports

Time Latitude Longitude Heading Altitude Ground
Speed
19-Jan-21 17:15 34.199052 -119.205658 0 39ft 0kts
19-Jan-21 17:16 34.199052 -119.205658 0 39ft 0kts
19-Jan-21 17:17 34.199052 -119.205658 0 39ft 0kts
19-Jan-21 17:18 34.199053 -119.205658 0 39ft 0kts
19-Jan-21 17:19 34.199053 -119.205658 0 39ft 0kts
19-Jan-21 17:20 34.199053 -119.205658 0 39ft 0kts
19-Jan-21 17:21 34.199053 -119.205658 0 39ft 0kts
19-Jan-21 17:22 34.199053 -119.205658 0 39ft 0kts
19-Jan-21 17:23 34.199053 -119.205658 0 39ft 0kts
19-Jan-21 17:24 34.199053 -119.205658 0 39ft 0kts
19-Jan-21 17:25 34.199053 -119.205658 0 39ft 0kts
19-Jan-21 17:26 34.199053 -119.205658 0 39ft 0kts
19-Jan-21 17:27 34.199053 -119.205658 0 39ft 0kts
19-Jan-21 17:28 34.199053 -119.205658 0 39ft 0kts
19-Jan-21 17:29 34.199053 -119.205658 0 39ft 0kts
19-Jan-21 17:30 34.199053 -119.205658 0 39ft 0kts
19-Jan-21 17:31 34.199053 -119.205658 0 39ft 0kts
19-Jan-21 17:32 34.199053 -119.205658 0 39ft 0kts
19-Jan-21 17:33 34.199053 -119.205658 0 39ft 0kts
19-Jan-21 17:34 34.199053 -119.205658 0 39ft 0kts
19-Jan-21 17:35 34.199053 -119.205658 0 39ft 0kts
19-Jan-21 17:36 34.199053 -119.205658 0 39ft 0kts
19-Jan-21 17:37 34.199053 -119.205658 0 39ft 0kts
19-Jan-21 17:38 34.199053 -119.205658 0 39ft 0kts
19-Jan-21 17:39 34.199053 -119.205658 0 39ft 0kts
19-Jan-21 17:40 34.199053 -119.205658 0 39ft 0kts
19-Jan-21 17:41 34.199053 -119.205658 0 39ft 0kts
19-Jan-21 17:42 34.199053 -119.205658 0 39ft 0kts
19-Jan-21 17:43 34.199053 -119.205658 0 39ft 0kts
19-Jan-21 17:44 34.199053 -119.205658 0 39ft 0kts
19-Jan-21 17:45 34.199053 -119.205658 0 39ft 0kts
19-Jan-21 17:46 34.199665 -119.206052 275 38ft 16kts
19-Jan-21 17:47 34.199723 -119.210555 269 36ft 28kts
19-Jan-21 17:48 34.199768 -119.215963 268 31ft 25kts
19-Jan-21 17:49 34.199998 -119.217000 354 30ft 0kts
19-Jan-21 17:50 34.199998 -119.217000 355 30ft 0kts
19-Jan-21 17:51 34.200645 -119.216865 44 30ft 19kts
19-Jan-21 17:52 34.200355 -119.210438 85 328ft 43kts
19-Jan-21 17:53 34.203600 -119.205728 14 676ft 69kts
19-Jan-21 17:54 34.211272 -119.219637 317 1021ft 107kts
19-Jan-21 17:55 34.217737 -119.236764 308 1501ft 103kts
19-Jan-21 17:56 34.225059 -119.253516 325 1913ft 99kts
19-Jan-21 17:57 34.233902 -119.268319 334 2384ft 91kts
19-Jan-21 17:58 34.242998 -119.281413 333 2754ft 95kts
19-Jan-21 17:59 34.253709 -119.295652 328 3106ft 104kts
19-Jan-21 18:00 34.263598 -119.313294 324 3484ft 107kts
19-Jan-21 18:01 34.276168 -119.330572 323 3769ft 117kts
19-Jan-21 18:02 34.287381 -119.350399 315 4060ft 128kts
19-Jan-21 18:03 34.297023 -119.373049 306 4204ft 123kts
19-Jan-21 18:04 34.305209 -119.394639 304 4494ft 117kts
19-Jan-21 18:05 34.313176 -119.416366 303 4835ft 113kts
19-Jan-21 18:06 34.323550 -119.435534 322 5201ft 107kts
19-Jan-21 18:07 34.336388 -119.451629 323 5487ft 114kts
19-Jan-21 18:09 34.349327 -119.470339 318 5789ft 112kts
19-Jan-21 18:10 34.361267 -119.489670 316 5999ft 117kts
19-Jan-21 18:11 34.372189 -119.511869 304 6044ft 124kts
19-Jan-21 18:12 34.383119 -119.535945 301 6034ft 121kts
19-Jan-21 18:13 34.393221 -119.559810 301 5942ft 125kts
19-Jan-21 18:14 34.402340 -119.583415 296 5984ft 117kts
19-Jan-21 18:15 34.413561 -119.602555 320 6056ft 114kts
19-Jan-21 18:16 34.426020 -119.618048 327 6021ft 118kts
19-Jan-21 18:17 34.438304 -119.636538 310 5968ft 114kts
19-Jan-21 18:18 34.447897 -119.655441 309 6040ft 108kts
19-Jan-21 18:19 34.457683 -119.674511 310 6036ft 109kts
19-Jan-21 18:20 34.467750 -119.693476 310 6042ft 110kts
19-Jan-21 18:21 34.478021 -119.713086 310 6115ft 115kts
19-Jan-21 18:21 34.486870 -119.729916 313 6136ft 119kts
19-Jan-21 18:23 34.501138 -119.754685 310 5983ft 126kts
19-Jan-21 18:24 34.512044 -119.774978 323 6000ft 106kts
19-Jan-21 18:24 34.522735 -119.788252 323 6024ft 104kts
19-Jan-21 18:26 34.538513 -119.806950 322 6083ft 113kts
19-Jan-21 18:26 34.550347 -119.821698 320 6095ft 119kts
19-Jan-21 18:27 34.564485 -119.842255 315 6056ft 126kts
19-Jan-21 18:28 34.577890 -119.865181 312 6037ft 126kts
19-Jan-21 18:29 34.592059 -119.887379 318 5998ft 125kts
19-Jan-21 18:30 34.607756 -119.906032 320 5997ft 124kts
19-Jan-21 18:31 34.623282 -119.925561 320 5998ft 124kts
19-Jan-21 18:32 34.639321 -119.945601 320 6035ft 122kts
19-Jan-21 18:33 34.654965 -119.968829 311 6061ft 124kts
19-Jan-21 18:34 34.669810 -119.992302 315 6111ft 123kts
19-Jan-21 18:35 34.686030 -120.016035 319 6138ft 124kts
19-Jan-21 18:36 34.703204 -120.038509 318 6088ft 128kts
19-Jan-21 18:37 34.720738 -120.059354 320 5998ft 127kts
19-Jan-21 18:38 34.736373 -120.079125 315 6007ft 121kts
19-Jan-21 18:39 34.751446 -120.100427 313 5951ft 124kts
19-Jan-21 18:40 34.765233 -120.123372 307 6105ft 117kts
19-Jan-21 18:41 34.780399 -120.146623 321 6157ft 119kts
19-Jan-21 18:42 34.797744 -120.168335 322 6211ft 122kts
19-Jan-21 18:43 34.815925 -120.190795 325 6136ft 129kts
19-Jan-21 18:44 34.835213 -120.213620 320 6011ft 135kts
19-Jan-21 18:45 34.853596 -120.235747 327 5964ft 121kts
19-Jan-21 18:46 34.868286 -120.258652 308 6058ft 115kts
19-Jan-21 18:47 34.881370 -120.282238 321 6108ft 119kts
19-Jan-21 18:48 34.895584 -120.304169 305 6166ft 126kts
19-Jan-21 18:49 34.910217 -120.327159 325 6030ft 127kts
19-Jan-21 18:50 34.926667 -120.344897 324 6024ft 119kts
19-Jan-21 18:51 34.940734 -120.365197 319 5984ft 118kts
19-Jan-21 18:52 34.954886 -120.384921 325 5994ft 114kts
19-Jan-21 18:53 34.969614 -120.402583 328 5991ft 113kts
19-Jan-21 18:54 34.985954 -120.419670 331 5950ft 112kts
19-Jan-21 18:55 35.003358 -120.437764 330 6029ft 107kts
19-Jan-21 18:56 35.020327 -120.458900 326 5877ft 113kts
19-Jan-21 18:57 35.038710 -120.478567 337 5470ft 114kts
19-Jan-21 18:58 35.058360 -120.497858 324 4922ft 119kts
19-Jan-21 18:59 35.075819 -120.518143 326 4456ft 116kts
19-Jan-21 19:00 35.093271 -120.536434 328 4099ft 112kts
19-Jan-21 19:01 35.107731 -120.554120 322 4059ft 111kts
19-Jan-21 19:02 35.120326 -120.571388 318 4000ft 122kts
19-Jan-21 19:03 35.134880 -120.588727 326 3682ft 133kts
19-Jan-21 19:04 35.150724 -120.605681 326 3227ft 128kts
19-Jan-21 19:05 35.167064 -120.620952 336 2681ft 122kts
19-Jan-21 19:06 35.181856 -120.633306 337 2467ft 111kts
19-Jan-21 19:07 35.197700 -120.646723 352 1930ft 115kts
19-Jan-21 19:08 35.213625 -120.651667 350 1595ft 110kts
19-Jan-21 19:09 35.230718 -120.656865 345 1120ft 109kts
19-Jan-21 19:10 35.244243 -120.662167 75 979ft 54kts
19-Jan-21 19:11 35.243555 -120.652227 134 397ft 55kts
19-Jan-21 19:12 35.239783 -120.645191 125 216ft 34kts
19-Jan-21 19:13 35.237786 -120.640372 92 216ft 7kts
19-Jan-21 19:14 35.236773 -120.637923 127 216ft 17kts
19-Jan-21 19:15 35.236321 -120.636135 37 216ft 0kts
19-Jan-21 19:16 35.236321 -120.636135 37 216ft 0kts
19-Jan-21 19:17 35.236321 -120.636135 37 216ft 0kts

Navigation Log

Ident Type
Flight plan parsing failed, navigation log unavailable